Terminal Aerodrome Forecast
Issued by NWS

Home | Current Version | Previous Version | Text Only | Print | Product List | Glossary On
Versions: 1 2 3 4 5 6 7 8 9 10 11 12
000
FTUS42 KMLB 220547
TAFLEE
TAF
KLEE 220547Z 2206/2306 07004KT P6SM SCT025
      TEMPO 2208/2212 5SM BR SCT005
     FM221500 13010KT P6SM SCT035
     FM222200 12007KT P6SM BKN035 BKN120
     FM230100 15005KT P6SM VCSH SCT015 BKN030 OVC120=

USA.gov is the U.S. government's official web portal to all federal, state and local government web resources and services.